Time;durP1;ratioP1;P1;durP2;ratioP2;P2;SDS_P1;SDS_P2;PMS_P1;PMS_P2;Temp;Humidity;BMP_temperature;BMP_pressure;BME280_temperature;BME280_humidity;BME280_pressure;Samples;Min_cycle;Max_cycle;Signal;HPM_P1;HPM_P2
2023/07/08 00:01:16;;;;;;;;;;;26.40;48.40;;;;;;5078483;28;20011;-3
2023/07/08 00:03:42;;;;;;;;;;;26.40;48.40;;;;;;5074603;28;19920;-3
2023/07/08 00:06:21;;;;;;;;;;;26.30;48.40;;;;;;5073874;28;20135;-3
2023/07/08 00:08:47;;;;;;;;;;;26.40;48.40;;;;;;5073245;28;19998;-3
2023/07/08 00:11:13;;;;;;;;;;;26.30;48.40;;;;;;5062699;28;20007;-3
2023/07/08 00:13:39;;;;;;;;;;;26.30;48.40;;;;;;5073638;28;20146;-3
2023/07/08 00:16:08;;;;;;;;;;;26.30;48.40;;;;;;5064129;28;20015;-3
2023/07/08 00:18:34;;;;;;;;;;;26.30;48.40;;;;;;5074384;28;20344;-3
2023/07/08 00:20:59;;;;;;;;;;;26.30;48.40;;;;;;5073301;28;19917;-3
2023/07/08 00:23:25;;;;;;;;;;;26.20;48.40;;;;;;5074610;28;19920;-3
2023/07/08 00:25:51;;;;;;;;;;;26.30;48.40;;;;;;5072898;28;19943;-3
2023/07/08 00:28:18;;;;;;;;;;;26.20;48.40;;;;;;5072990;28;19918;-3
2023/07/08 00:30:44;;;;;;;;;;;26.20;48.40;;;;;;5072254;28;20274;-3
2023/07/08 00:33:09;;;;;;;;;;;26.20;48.40;;;;;;5073283;28;19908;-4
2023/07/08 00:35:35;;;;;;;;;;;26.20;48.40;;;;;;5073887;28;20022;-4
2023/07/08 00:38:19;;;;;;;;;;;26.20;48.40;;;;;;5073147;28;19967;-4
2023/07/08 00:40:52;;;;;;;;;;;26.20;48.40;;;;;;5073564;28;19908;-4
2023/07/08 00:43:22;;;;;;;;;;;26.20;48.40;;;;;;5073468;28;20190;-4
2023/07/08 00:45:49;;;;;;;;;;;26.20;48.40;;;;;;5073020;28;19908;-4
2023/07/08 00:48:22;;;;;;;;;;;26.10;48.40;;;;;;5083339;28;19973;-4
2023/07/08 00:50:48;;;;;;;;;;;26.10;48.40;;;;;;5070547;28;19917;-4
2023/07/08 00:53:27;;;;;;;;;;;26.10;48.40;;;;;;5066358;28;19909;-4
2023/07/08 00:55:54;;;;;;;;;;;26.10;48.40;;;;;;5073033;28;20121;-4
2023/07/08 00:58:21;;;;;;;;;;;26.10;48.40;;;;;;5082913;28;19962;-4
2023/07/08 01:00:49;;;;;;;;;;;26.10;48.40;;;;;;5055398;28;19909;-3
2023/07/08 01:03:15;;;;;;;;;;;26.10;48.40;;;;;;5072987;28;19909;-3
2023/07/08 01:05:43;;;;;;;;;;;26.10;48.40;;;;;;5072389;28;19918;-3
2023/07/08 01:08:09;;;;;;;;;;;26.10;48.40;;;;;;5073725;28;20264;-3
2023/07/08 01:10:50;;;;;;;;;;;26.10;48.40;;;;;;5072106;28;19971;-4
2023/07/08 01:13:16;;;;;;;;;;;26.00;48.40;;;;;;5072776;28;20250;-3
2023/07/08 01:15:43;;;;;;;;;;;26.00;48.40;;;;;;5072183;28;20297;-3
2023/07/08 01:18:09;;;;;;;;;;;26.00;48.40;;;;;;5073868;28;20197;-3
2023/07/08 01:20:35;;;;;;;;;;;26.00;48.40;;;;;;5087375;28;19959;-3
2023/07/08 01:23:01;;;;;;;;;;;26.00;48.40;;;;;;5073346;28;19916;-3
2023/07/08 01:25:27;;;;;;;;;;;26.00;48.40;;;;;;5069870;28;19909;-3
2023/07/08 01:27:54;;;;;;;;;;;26.00;48.40;;;;;;5073936;28;19908;-3
2023/07/08 01:30:20;;;;;;;;;;;26.00;48.40;;;;;;5063011;28;20150;-3
2023/07/08 01:32:50;;;;;;;;;;;26.00;48.40;;;;;;5056360;28;20077;-3
2023/07/08 01:35:16;;;;;;;;;;;25.90;48.40;;;;;;5062690;28;19912;-3
2023/07/08 01:37:48;;;;;;;;;;;25.90;48.40;;;;;;5055711;28;19920;-3
2023/07/08 01:40:28;;;;;;;;;;;25.90;48.40;;;;;;5072326;28;19909;-3
2023/07/08 01:42:54;;;;;;;;;;;25.90;48.40;;;;;;5069929;28;19909;-3
2023/07/08 01:45:21;;;;;;;;;;;25.90;48.40;;;;;;5070619;28;20057;-3
2023/07/08 01:47:53;;;;;;;;;;;25.90;48.40;;;;;;5068893;28;19917;-3
2023/07/08 01:50:19;;;;;;;;;;;25.90;48.40;;;;;;5070484;28;19912;-3
2023/07/08 01:52:46;;;;;;;;;;;25.90;48.40;;;;;;5071314;28;20324;-4
2023/07/08 01:55:12;;;;;;;;;;;25.90;48.40;;;;;;5075372;28;19916;-3
2023/07/08 01:57:37;;;;;;;;;;;25.90;48.40;;;;;;5072252;28;19971;-3
2023/07/08 02:00:03;;;;;;;;;;;25.80;48.40;;;;;;5060389;28;19986;-3
2023/07/08 02:02:29;;;;;;;;;;;25.80;48.40;;;;;;5072727;28;19918;-3
2023/07/08 02:04:55;;;;;;;;;;;25.80;48.40;;;;;;5069900;28;20004;-3
2023/07/08 02:07:20;;;;;;;;;;;25.80;48.40;;;;;;5056883;28;20007;-3
2023/07/08 02:09:46;;;;;;;;;;;25.80;48.40;;;;;;5063482;28;19921;-3
2023/07/08 02:12:12;;;;;;;;;;;25.80;48.50;;;;;;5073149;28;19920;-3
2023/07/08 02:14:37;;;;;;;;;;;25.80;48.50;;;;;;5060183;28;19916;-3
2023/07/08 02:17:05;;;;;;;;;;;25.70;48.40;;;;;;5059260;28;20251;-3
2023/07/08 02:19:31;;;;;;;;;;;25.70;48.40;;;;;;5058260;28;20003;-3
2023/07/08 02:21:57;;;;;;;;;;;25.70;48.40;;;;;;5064034;28;20010;-3
2023/07/08 02:24:23;;;;;;;;;;;25.70;48.50;;;;;;5076651;28;19919;-3
2023/07/08 02:26:48;;;;;;;;;;;25.70;48.50;;;;;;5067913;28;19966;-3
2023/07/08 02:29:14;;;;;;;;;;;25.70;48.50;;;;;;5060156;28;20066;-3
2023/07/08 02:31:39;;;;;;;;;;;25.70;48.50;;;;;;5064340;28;20243;-3
2023/07/08 02:34:05;;;;;;;;;;;25.70;48.50;;;;;;5076802;28;19916;-3
2023/07/08 02:36:31;;;;;;;;;;;25.70;48.50;;;;;;5075981;28;20202;-3
2023/07/08 02:38:56;;;;;;;;;;;25.60;48.50;;;;;;5077041;28;20202;-3
2023/07/08 02:41:22;;;;;;;;;;;25.60;48.50;;;;;;5076389;28;19908;-3
2023/07/08 02:43:47;;;;;;;;;;;25.60;48.50;;;;;;5075269;28;19913;-3
2023/07/08 02:46:13;;;;;;;;;;;25.60;48.50;;;;;;5065014;28;19908;-3
2023/07/08 02:48:39;;;;;;;;;;;25.60;48.50;;;;;;5075431;28;19952;-3
2023/07/08 02:51:05;;;;;;;;;;;25.50;48.50;;;;;;5075582;28;19969;-3
2023/07/08 02:53:31;;;;;;;;;;;25.60;48.50;;;;;;5076448;28;19908;-3
2023/07/08 02:55:56;;;;;;;;;;;25.60;48.50;;;;;;5076771;28;20183;-3
2023/07/08 02:58:22;;;;;;;;;;;25.60;48.50;;;;;;5070821;28;19909;-3
2023/07/08 03:00:51;;;;;;;;;;;25.50;48.50;;;;;;5076666;28;19912;-2
2023/07/08 03:03:17;;;;;;;;;;;25.50;48.50;;;;;;5075282;28;19908;-3
2023/07/08 03:05:42;;;;;;;;;;;25.50;48.50;;;;;;5076896;28;19909;-3
2023/07/08 03:08:09;;;;;;;;;;;25.50;48.50;;;;;;5076519;28;19908;-3
2023/07/08 03:10:35;;;;;;;;;;;25.50;48.50;;;;;;5075731;28;19987;-3
2023/07/08 03:13:00;;;;;;;;;;;25.50;48.50;;;;;;5076531;28;20050;-3
2023/07/08 03:15:25;;;;;;;;;;;25.50;48.50;;;;;;5075596;28;19916;-2
2023/07/08 03:17:57;;;;;;;;;;;25.50;48.50;;;;;;5070344;28;20270;-2
2023/07/08 03:20:22;;;;;;;;;;;25.50;48.50;;;;;;5057652;28;19908;-3
2023/07/08 03:22:48;;;;;;;;;;;25.50;48.50;;;;;;5075693;28;19909;-2
2023/07/08 03:25:13;;;;;;;;;;;25.40;48.50;;;;;;5073832;28;19920;-2
2023/07/08 03:27:39;;;;;;;;;;;25.40;48.50;;;;;;5073454;28;19947;-2
2023/07/08 03:30:05;;;;;;;;;;;25.40;48.50;;;;;;5073649;28;19916;-2
2023/07/08 03:32:30;;;;;;;;;;;25.40;48.50;;;;;;5073749;28;19916;-2
2023/07/08 03:34:56;;;;;;;;;;;25.40;48.50;;;;;;5070163;28;20225;-2
2023/07/08 03:37:21;;;;;;;;;;;25.40;48.50;;;;;;5067831;28;19909;-2
2023/07/08 03:39:47;;;;;;;;;;;25.40;48.50;;;;;;5074161;28;20003;-2
2023/07/08 03:42:12;;;;;;;;;;;25.40;48.50;;;;;;5074550;28;19943;-2
2023/07/08 03:44:38;;;;;;;;;;;25.40;48.50;;;;;;5067115;28;19908;-2
2023/07/08 03:47:04;;;;;;;;;;;25.40;48.50;;;;;;5072937;28;19956;-2
2023/07/08 03:49:29;;;;;;;;;;;25.40;48.50;;;;;;5076460;28;19970;-2
2023/07/08 03:51:55;;;;;;;;;;;25.40;48.50;;;;;;5074535;28;19912;-2
2023/07/08 03:54:22;;;;;;;;;;;25.30;48.50;;;;;;5074951;28;19912;-2
2023/07/08 03:56:47;;;;;;;;;;;25.30;48.50;;;;;;5076008;28;19912;-2
2023/07/08 03:59:13;;;;;;;;;;;25.40;48.50;;;;;;5073997;28;19908;-2
2023/07/08 04:01:40;;;;;;;;;;;25.30;48.50;;;;;;5072671;28;19999;-3
2023/07/08 04:04:08;;;;;;;;;;;25.30;48.50;;;;;;5073857;28;20007;-3
2023/07/08 04:06:34;;;;;;;;;;;25.30;48.50;;;;;;5075405;28;20322;-2
2023/07/08 04:08:59;;;;;;;;;;;25.30;48.50;;;;;;5064015;28;19925;-2
2023/07/08 04:11:25;;;;;;;;;;;25.30;48.50;;;;;;5073602;28;20194;-2
2023/07/08 04:13:51;;;;;;;;;;;25.30;48.50;;;;;;5065757;28;19920;-2
2023/07/08 04:16:18;;;;;;;;;;;25.30;48.50;;;;;;5070905;28;19912;-2
2023/07/08 04:18:44;;;;;;;;;;;25.30;48.50;;;;;;5074412;28;19909;-2
2023/07/08 04:21:09;;;;;;;;;;;25.30;48.50;;;;;;5074466;28;19912;-2
2023/07/08 04:23:35;;;;;;;;;;;25.30;48.50;;;;;;5073925;28;20254;-2
2023/07/08 04:26:01;;;;;;;;;;;25.30;48.50;;;;;;5072830;28;19924;-2
2023/07/08 04:28:26;;;;;;;;;;;25.30;48.50;;;;;;5068946;28;20043;-2
2023/07/08 04:30:52;;;;;;;;;;;25.30;48.50;;;;;;5065794;28;20270;-3
2023/07/08 04:33:18;;;;;;;;;;;25.30;48.50;;;;;;5073403;28;19919;-2
2023/07/08 04:35:44;;;;;;;;;;;25.30;48.50;;;;;;5073003;28;20012;-2
2023/07/08 04:38:21;;;;;;;;;;;25.30;48.50;;;;;;5073437;28;19915;-2
2023/07/08 04:40:47;;;;;;;;;;;25.30;48.40;;;;;;5074232;28;20027;-2
2023/07/08 04:43:13;;;;;;;;;;;25.30;48.40;;;;;;5073943;28;20239;-2
2023/07/08 04:45:39;;;;;;;;;;;25.30;48.40;;;;;;5074182;28;19971;-2
2023/07/08 04:48:12;;;;;;;;;;;25.30;48.40;;;;;;5075006;28;19909;-2
2023/07/08 04:50:42;;;;;;;;;;;25.30;48.40;;;;;;5085226;28;19946;-2
2023/07/08 04:53:08;;;;;;;;;;;25.30;48.40;;;;;;5072625;28;19908;-2
2023/07/08 04:55:34;;;;;;;;;;;25.30;48.40;;;;;;5072070;28;19960;-2
2023/07/08 04:58:01;;;;;;;;;;;25.30;48.40;;;;;;5071636;28;19916;-2
2023/07/08 05:00:27;;;;;;;;;;;25.30;48.40;;;;;;5068506;28;19908;-2
2023/07/08 05:02:54;;;;;;;;;;;25.30;48.40;;;;;;5068929;28;20175;-2
2023/07/08 05:05:19;;;;;;;;;;;25.40;48.50;;;;;;5057838;28;20143;-2
2023/07/08 05:07:45;;;;;;;;;;;25.40;48.40;;;;;;5070989;28;19970;-2
2023/07/08 05:10:10;;;;;;;;;;;25.30;48.40;;;;;;5070569;28;20409;-2
2023/07/08 05:12:36;;;;;;;;;;;25.40;48.40;;;;;;5059852;28;20379;-3
2023/07/08 05:15:02;;;;;;;;;;;25.40;48.40;;;;;;5071306;28;20224;-2
2023/07/08 05:17:28;;;;;;;;;;;25.30;48.40;;;;;;5071028;28;19924;-2
2023/07/08 05:19:54;;;;;;;;;;;25.40;48.40;;;;;;5054372;28;19909;-2
2023/07/08 05:22:25;;;;;;;;;;;25.40;48.40;;;;;;5071705;28;20325;-2
2023/07/08 05:24:52;;;;;;;;;;;25.40;48.30;;;;;;5054690;28;19916;-2
2023/07/08 05:27:18;;;;;;;;;;;25.40;48.30;;;;;;5072771;28;19920;-2
2023/07/08 05:29:45;;;;;;;;;;;25.50;48.30;;;;;;5072347;28;20014;-2
2023/07/08 05:32:11;;;;;;;;;;;25.50;48.30;;;;;;5071888;28;19957;-2
2023/07/08 05:34:37;;;;;;;;;;;25.50;48.20;;;;;;5070511;28;20211;-2
2023/07/08 05:37:03;;;;;;;;;;;25.50;48.20;;;;;;5060585;28;19908;-2
2023/07/08 05:39:29;;;;;;;;;;;25.50;48.20;;;;;;5074278;28;19909;-2
2023/07/08 05:41:54;;;;;;;;;;;25.60;48.30;;;;;;5076511;28;20020;-2
2023/07/08 05:44:22;;;;;;;;;;;25.60;48.30;;;;;;5076506;28;19959;-2
2023/07/08 05:46:49;;;;;;;;;;;25.60;48.30;;;;;;5077216;28;19995;-2
2023/07/08 05:49:14;;;;;;;;;;;25.60;48.30;;;;;;5077709;28;19908;-2
2023/07/08 05:51:40;;;;;;;;;;;25.60;48.30;;;;;;5077463;28;20039;-2
2023/07/08 05:54:06;;;;;;;;;;;25.60;48.20;;;;;;5076905;28;19960;-2
2023/07/08 05:56:31;;;;;;;;;;;25.60;48.20;;;;;;5077086;28;20017;-2
2023/07/08 05:58:57;;;;;;;;;;;25.70;48.30;;;;;;5063650;28;20005;-2
2023/07/08 06:01:22;;;;;;;;;;;25.70;48.20;;;;;;5062135;28;19909;-2
2023/07/08 06:03:48;;;;;;;;;;;25.80;48.20;;;;;;5080235;28;19908;-2
2023/07/08 06:06:13;;;;;;;;;;;25.80;48.10;;;;;;5062062;28;19908;-2
2023/07/08 06:08:39;;;;;;;;;;;25.90;48.20;;;;;;5080026;28;20246;-2
2023/07/08 06:11:04;;;;;;;;;;;26.00;48.20;;;;;;5078892;28;19920;-2
2023/07/08 06:13:30;;;;;;;;;;;26.00;48.10;;;;;;5080031;28;20301;-2
2023/07/08 06:15:56;;;;;;;;;;;26.10;48.10;;;;;;5080056;28;19948;-2
2023/07/08 06:18:24;;;;;;;;;;;26.20;48.50;;;;;;5080764;28;19908;-2
2023/07/08 06:20:56;;;;;;;;;;;26.20;48.10;;;;;;5080374;28;20201;-2
2023/07/08 06:23:21;;;;;;;;;;;26.30;48.10;;;;;;5080563;28;19987;-2
2023/07/08 06:25:47;;;;;;;;;;;26.40;48.10;;;;;;5080238;28;20006;-2
2023/07/08 06:28:15;;;;;;;;;;;26.40;48.10;;;;;;5080267;28;19909;-2
2023/07/08 06:30:40;;;;;;;;;;;26.50;48.10;;;;;;5079977;28;19912;-2
2023/07/08 06:33:06;;;;;;;;;;;26.60;48.20;;;;;;5062452;28;19990;-2
2023/07/08 06:35:31;;;;;;;;;;;26.60;48.20;;;;;;5079133;28;19912;-2
2023/07/08 06:37:57;;;;;;;;;;;26.60;48.20;;;;;;5080263;28;19923;-2
2023/07/08 06:40:22;;;;;;;;;;;26.70;48.20;;;;;;5079863;28;19909;-3
2023/07/08 06:42:48;;;;;;;;;;;26.80;48.20;;;;;;5079704;28;20061;-2
2023/07/08 06:45:14;;;;;;;;;;;26.80;48.10;;;;;;5079001;28;20434;-2
2023/07/08 06:47:39;;;;;;;;;;;26.90;48.10;;;;;;5079308;28;19909;-3
2023/07/08 06:50:06;;;;;;;;;;;27.00;48.10;;;;;;5079549;28;19990;-2
2023/07/08 06:52:34;;;;;;;;;;;27.00;48.10;;;;;;5078852;28;19908;-2
2023/07/08 06:55:00;;;;;;;;;;;27.10;48.10;;;;;;5078761;28;19989;-2
2023/07/08 06:57:26;;;;;;;;;;;27.20;48.10;;;;;;5078862;28;19920;-2
2023/07/08 06:59:51;;;;;;;;;;;27.20;48.00;;;;;;5078917;28;19908;-3
2023/07/08 07:02:17;;;;;;;;;;;27.30;48.00;;;;;;5079373;28;20007;-2
2023/07/08 07:04:43;;;;;;;;;;;27.40;48.00;;;;;;5069475;28;20341;-2
2023/07/08 07:07:09;;;;;;;;;;;27.50;48.00;;;;;;5079217;28;19919;-2
2023/07/08 07:09:34;;;;;;;;;;;27.50;47.90;;;;;;5087593;28;19909;-2
2023/07/08 07:12:02;;;;;;;;;;;27.50;47.90;;;;;;5079258;28;19913;-2
2023/07/08 07:14:28;;;;;;;;;;;27.60;47.90;;;;;;5078463;28;20204;-4
2023/07/08 07:16:54;;;;;;;;;;;27.60;47.80;;;;;;5079102;28;19908;-2
2023/07/08 07:19:21;;;;;;;;;;;27.70;47.90;;;;;;5078658;28;19912;-2
2023/07/08 07:21:47;;;;;;;;;;;27.80;47.90;;;;;;5061383;28;19908;-2
2023/07/08 07:24:12;;;;;;;;;;;27.80;47.90;;;;;;5061505;28;19916;-2
2023/07/08 07:26:38;;;;;;;;;;;27.90;47.90;;;;;;5078815;28;19908;-2
2023/07/08 07:29:04;;;;;;;;;;;28.00;48.00;;;;;;5078748;28;19908;-3
2023/07/08 07:31:30;;;;;;;;;;;28.10;48.10;;;;;;5078593;28;19939;-2
2023/07/08 07:33:56;;;;;;;;;;;28.10;48.10;;;;;;5078088;28;20202;-2
2023/07/08 07:36:21;;;;;;;;;;;28.20;48.00;;;;;;5078055;28;19923;-2
2023/07/08 07:38:47;;;;;;;;;;;28.30;47.90;;;;;;5077008;28;20266;-2
2023/07/08 07:41:16;;;;;;;;;;;28.30;48.00;;;;;;5076999;28;20313;-2
2023/07/08 07:43:41;;;;;;;;;;;28.40;48.00;;;;;;5077119;28;20003;-2
2023/07/08 07:46:07;;;;;;;;;;;28.40;47.90;;;;;;5077923;28;19995;-2
2023/07/08 07:48:33;;;;;;;;;;;28.50;47.90;;;;;;5060800;28;19909;-2
2023/07/08 07:51:00;;;;;;;;;;;28.60;47.90;;;;;;5077469;28;19908;-2
2023/07/08 07:53:26;;;;;;;;;;;28.90;48.30;;;;;;5074816;28;19908;-2
2023/07/08 07:55:58;;;;;;;;;;;29.00;47.70;;;;;;5076180;28;20328;-2
2023/07/08 07:58:23;;;;;;;;;;;29.20;47.60;;;;;;5077505;28;20268;-3
2023/07/08 08:00:49;;;;;;;;;;;29.40;47.40;;;;;;5058576;28;20015;-2
2023/07/08 08:03:16;;;;;;;;;;;29.50;47.30;;;;;;5058588;28;19908;-3
2023/07/08 08:05:42;;;;;;;;;;;29.50;47.30;;;;;;5076878;28;19991;-3
2023/07/08 08:08:08;;;;;;;;;;;29.60;47.20;;;;;;5076547;28;20003;-2
2023/07/08 08:10:34;;;;;;;;;;;29.70;47.20;;;;;;5075915;28;19938;-2
2023/07/08 08:13:00;;;;;;;;;;;29.70;47.20;;;;;;5069957;28;19931;-2
2023/07/08 08:15:26;;;;;;;;;;;29.70;47.30;;;;;;5059336;28;19917;-3
2023/07/08 08:17:51;;;;;;;;;;;29.70;47.20;;;;;;5076514;28;19917;-2
2023/07/08 08:20:18;;;;;;;;;;;29.70;47.20;;;;;;5075325;28;19908;-2
2023/07/08 08:22:44;;;;;;;;;;;29.80;47.20;;;;;;5075469;28;19908;-3
2023/07/08 08:25:10;;;;;;;;;;;29.80;47.20;;;;;;5076039;28;19920;-2
2023/07/08 08:27:35;;;;;;;;;;;29.80;47.30;;;;;;5075711;28;19936;-2
2023/07/08 08:30:01;;;;;;;;;;;29.90;47.30;;;;;;5075385;28;20336;-3
2023/07/08 08:32:37;;;;;;;;;;;29.90;47.20;;;;;;5074509;28;20149;-3
2023/07/08 08:35:02;;;;;;;;;;;29.90;47.20;;;;;;5057828;28;19919;-4
2023/07/08 08:37:28;;;;;;;;;;;29.90;47.20;;;;;;5074664;28;19998;-3
2023/07/08 08:39:54;;;;;;;;;;;30.00;47.30;;;;;;5074932;28;19908;-2
2023/07/08 08:42:27;;;;;;;;;;;30.00;47.30;;;;;;5074991;28;19908;-3
2023/07/08 08:44:53;;;;;;;;;;;30.00;47.30;;;;;;5075544;28;19931;-3
2023/07/08 08:47:34;;;;;;;;;;;30.00;47.30;;;;;;5075171;28;19908;-3
2023/07/08 08:50:08;;;;;;;;;;;30.10;47.30;;;;;;5057605;28;20205;-2
2023/07/08 08:52:34;;;;;;;;;;;30.10;47.20;;;;;;5057631;28;19970;-3
2023/07/08 08:54:59;;;;;;;;;;;30.20;47.30;;;;;;5067403;28;19963;-3
2023/07/08 08:57:36;;;;;;;;;;;30.20;47.30;;;;;;5075571;28;19919;-2
2023/07/08 09:00:03;;;;;;;;;;;30.30;47.30;;;;;;5075869;28;20365;-3
2023/07/08 09:02:47;;;;;;;;;;;30.30;47.20;;;;;;5074907;28;19995;-3
2023/07/08 09:05:25;;;;;;;;;;;30.30;47.30;;;;;;5055918;28;19912;-2
2023/07/08 09:07:56;;;;;;;;;;;30.30;47.30;;;;;;5075137;28;19913;-2
2023/07/08 09:10:31;;;;;;;;;;;30.30;47.20;;;;;;5075116;28;19909;-3
2023/07/08 09:12:57;;;;;;;;;;;30.40;47.40;;;;;;5076027;28;19915;-3
2023/07/08 09:15:25;;;;;;;;;;;30.40;47.40;;;;;;5075314;28;19917;-2
2023/07/08 09:17:53;;;;;;;;;;;30.40;47.40;;;;;;5059965;28;20191;-3
2023/07/08 09:20:24;;;;;;;;;;;30.40;47.40;;;;;;5075651;28;19997;-3
2023/07/08 09:22:50;;;;;;;;;;;30.40;47.40;;;;;;5074968;28;20213;-3
2023/07/08 09:25:21;;;;;;;;;;;30.30;47.40;;;;;;5069378;28;19908;-3
2023/07/08 09:27:47;;;;;;;;;;;30.30;47.60;;;;;;5074499;28;19966;-3
2023/07/08 09:30:14;;;;;;;;;;;30.30;47.50;;;;;;5054634;28;20006;-3
2023/07/08 09:32:39;;;;;;;;;;;30.20;47.70;;;;;;5041719;28;19916;-2
2023/07/08 09:35:06;;;;;;;;;;;30.20;47.60;;;;;;5058906;28;19916;-3
2023/07/08 09:37:33;;;;;;;;;;;30.30;47.70;;;;;;5058829;28;19962;-3
2023/07/08 09:40:00;;;;;;;;;;;30.30;47.60;;;;;;5067741;28;19915;-2
2023/07/08 09:42:32;;;;;;;;;;;30.40;47.60;;;;;;5078654;28;19919;-3
2023/07/08 09:45:01;;;;;;;;;;;30.40;47.70;;;;;;5066250;28;19912;-3
2023/07/08 09:47:30;;;;;;;;;;;30.40;47.70;;;;;;5077842;28;19909;-2
2023/07/08 09:49:57;;;;;;;;;;;30.40;47.70;;;;;;5078558;28;19909;-2
2023/07/08 09:52:22;;;;;;;;;;;30.40;47.70;;;;;;5079736;28;19919;-2
2023/07/08 09:54:48;;;;;;;;;;;30.50;47.70;;;;;;5079847;28;19913;-2
2023/07/08 09:57:15;;;;;;;;;;;30.50;47.70;;;;;;5079641;28;19909;-2
2023/07/08 09:59:45;;;;;;;;;;;30.60;47.70;;;;;;5073676;28;19909;-3
2023/07/08 10:02:25;;;;;;;;;;;30.60;47.70;;;;;;5078716;28;20494;-2
2023/07/08 10:04:55;;;;;;;;;;;30.60;47.70;;;;;;5073292;28;19912;-2
2023/07/08 10:07:21;;;;;;;;;;;30.60;47.70;;;;;;5079979;28;19912;-3
2023/07/08 10:09:49;;;;;;;;;;;30.60;47.70;;;;;;5079823;28;19992;-2
2023/07/08 10:12:15;;;;;;;;;;;30.60;47.70;;;;;;5078956;28;20289;-2
2023/07/08 10:14:47;;;;;;;;;;;30.60;47.80;;;;;;5079032;28;19924;-3
2023/07/08 10:17:14;;;;;;;;;;;30.60;47.80;;;;;;5077429;28;19969;-2
2023/07/08 10:19:40;;;;;;;;;;;30.60;47.80;;;;;;5078813;28;19962;-2
2023/07/08 10:22:22;;;;;;;;;;;30.70;47.80;;;;;;5079532;28;19909;-2
2023/07/08 10:24:54;;;;;;;;;;;30.60;47.90;;;;;;5077642;28;19908;-2
2023/07/08 10:27:26;;;;;;;;;;;30.60;47.90;;;;;;5078162;28;19914;-3
2023/07/08 10:32:53;;;;;;;;;;;30.70;47.90;;;;;;5089313;22;20494;-71
2023/07/08 10:35:32;;;;;;;;;;;30.70;47.90;;;;;;5073450;28;19927;-71
2023/07/08 10:38:30;;;;;;;;;;;30.80;47.90;;;;;;5072069;28;20349;-71
2023/07/08 10:41:19;;;;;;;;;;;30.80;47.90;;;;;;5060986;28;20237;-71
2023/07/08 10:43:56;;;;;;;;;;;30.80;47.90;;;;;;5062767;28;19934;-71
2023/07/08 10:46:36;;;;;;;;;;;30.90;48.00;;;;;;5064752;28;19915;-71
2023/07/08 10:49:31;;;;;;;;;;;30.90;48.00;;;;;;5082062;28;19999;-71
2023/07/08 10:51:59;;;;;;;;;;;30.90;48.00;;;;;;5047666;28;20092;-71
2023/07/08 10:54:43;;;;;;;;;;;31.00;48.10;;;;;;5065188;28;20310;-71
2023/07/08 10:57:12;;;;;;;;;;;31.00;48.10;;;;;;5066599;28;20202;-71
2023/07/08 10:59:57;;;;;;;;;;;31.00;48.10;;;;;;5066719;28;20175;-71
2023/07/08 11:02:23;;;;;;;;;;;31.00;48.10;;;;;;5066999;28;19916;-71
2023/07/08 11:04:59;;;;;;;;;;;31.00;48.50;;;;;;5064963;28;19908;-71
2023/07/08 11:07:40;;;;;;;;;;;31.00;48.10;;;;;;5064486;28;19916;-70
2023/07/08 11:10:10;;;;;;;;;;;30.90;48.20;;;;;;5065722;28;20347;-71
2023/07/08 11:12:40;;;;;;;;;;;31.00;48.30;;;;;;5067583;28;20341;-71
2023/07/08 11:15:12;;;;;;;;;;;31.00;48.30;;;;;;5068550;28;20258;-71
2023/07/08 11:17:40;;;;;;;;;;;31.00;48.30;;;;;;5067816;28;19942;-71
2023/07/08 11:20:14;;;;;;;;;;;31.10;48.30;;;;;;5067767;28;19913;-71
2023/07/08 11:22:47;;;;;;;;;;;31.10;48.30;;;;;;5068485;28;19959;-72
2023/07/08 11:25:17;;;;;;;;;;;31.10;48.40;;;;;;5066388;28;19916;-72
2023/07/08 11:27:44;;;;;;;;;;;31.00;48.30;;;;;;5065946;28;19919;-71
2023/07/08 11:30:10;;;;;;;;;;;31.10;48.40;;;;;;5065965;28;19931;-72
2023/07/08 11:32:37;;;;;;;;;;;31.10;48.40;;;;;;5069897;28;19917;-72
2023/07/08 11:35:04;;;;;;;;;;;31.10;48.40;;;;;;5068329;28;20272;-72
2023/07/08 11:37:30;;;;;;;;;;;31.20;48.40;;;;;;5066920;28;19909;-72
2023/07/08 11:40:05;;;;;;;;;;;31.20;48.40;;;;;;5067762;28;20168;-72
2023/07/08 11:42:47;;;;;;;;;;;31.20;48.30;;;;;;5065953;28;19997;-72
2023/07/08 11:45:18;;;;;;;;;;;31.20;48.30;;;;;;5065073;28;20055;-72
2023/07/08 11:47:46;;;;;;;;;;;31.20;48.30;;;;;;5065477;28;20123;-72
2023/07/08 11:50:15;;;;;;;;;;;31.20;48.40;;;;;;5065445;28;19909;-72
2023/07/08 11:52:50;;;;;;;;;;;31.30;48.40;;;;;;5066399;28;19916;-72
2023/07/08 11:55:21;;;;;;;;;;;31.30;48.40;;;;;;5063073;28;20011;-72
2023/07/08 11:57:52;;;;;;;;;;;31.30;48.40;;;;;;5063282;28;20015;-72
2023/07/08 12:00:21;;;;;;;;;;;31.30;48.40;;;;;;5065436;28;19917;-72
2023/07/08 12:02:57;;;;;;;;;;;31.30;48.40;;;;;;5067987;28;19908;-72
2023/07/08 12:05:33;;;;;;;;;;;31.40;48.50;;;;;;5064484;28;19908;-72
2023/07/08 12:08:03;;;;;;;;;;;31.30;48.40;;;;;;5060857;28;20404;-72
2023/07/08 12:10:32;;;;;;;;;;;31.30;48.40;;;;;;5059774;28;19962;-72
2023/07/08 12:12:58;;;;;;;;;;;31.30;48.40;;;;;;5061949;28;19931;-73
2023/07/08 12:15:25;;;;;;;;;;;31.30;48.50;;;;;;5058772;28;20115;-72
2023/07/08 12:18:03;;;;;;;;;;;31.40;48.50;;;;;;5060350;28;19916;-72
2023/07/08 12:20:31;;;;;;;;;;;31.40;48.50;;;;;;5063560;28;19908;-72
2023/07/08 12:22:56;;;;;;;;;;;31.40;48.50;;;;;;5061524;28;19912;-72
2023/07/08 12:25:25;;;;;;;;;;;31.40;48.50;;;;;;5064135;28;19909;-73
2023/07/08 12:27:51;;;;;;;;;;;31.40;48.50;;;;;;5066318;28;20181;-71
2023/07/08 12:30:17;;;;;;;;;;;31.40;48.50;;;;;;5066891;28;20015;-72
2023/07/08 12:32:43;;;;;;;;;;;31.40;48.60;;;;;;5065020;28;19921;-72
2023/07/08 12:35:17;;;;;;;;;;;31.40;48.60;;;;;;5065783;28;20066;-70
2023/07/08 12:37:43;;;;;;;;;;;31.40;48.60;;;;;;5061128;28;20163;-70
2023/07/08 12:40:10;;;;;;;;;;;31.40;49.00;;;;;;5062518;28;19912;-70
2023/07/08 12:42:35;;;;;;;;;;;31.40;48.60;;;;;;5062348;28;20240;-70
2023/07/08 12:45:01;;;;;;;;;;;31.50;48.70;;;;;;5060561;28;20126;-70
2023/07/08 12:47:26;;;;;;;;;;;31.50;48.70;;;;;;5062480;28;19908;-70
2023/07/08 12:49:53;;;;;;;;;;;31.50;48.70;;;;;;5063643;28;20342;-71
2023/07/08 12:52:23;;;;;;;;;;;31.50;48.70;;;;;;5061117;28;19959;-71
2023/07/08 12:54:48;;;;;;;;;;;31.50;48.80;;;;;;5062992;28;19936;-70
2023/07/08 12:57:15;;;;;;;;;;;31.50;48.80;;;;;;5065989;28;19908;-70
2023/07/08 12:59:41;;;;;;;;;;;31.50;48.80;;;;;;5064259;28;20171;-72
2023/07/08 13:02:17;;;;;;;;;;;31.50;48.80;;;;;;5082759;28;20077;-71
2023/07/08 13:04:44;;;;;;;;;;;31.50;48.80;;;;;;5089736;28;19923;-72
2023/07/08 13:07:22;;;;;;;;;;;31.50;48.90;;;;;;5088495;28;19916;-72
2023/07/08 13:09:48;;;;;;;;;;;31.50;48.90;;;;;;5088518;28;19916;-72
2023/07/08 13:12:22;;;;;;;;;;;31.50;48.90;;;;;;5089935;28;19919;-72
2023/07/08 13:14:48;;;;;;;;;;;31.50;48.90;;;;;;5087483;28;19908;-72
2023/07/08 13:17:16;;;;;;;;;;;31.50;48.90;;;;;;5065729;28;20120;-71
2023/07/08 13:19:42;;;;;;;;;;;31.50;48.90;;;;;;5082550;28;19920;-72
2023/07/08 13:22:14;;;;;;;;;;;31.50;48.90;;;;;;5080975;28;19919;-72
2023/07/08 13:24:40;;;;;;;;;;;31.60;49.00;;;;;;5082351;28;20061;-72
2023/07/08 13:27:08;;;;;;;;;;;31.50;49.00;;;;;;5086735;28;19974;-72
2023/07/08 13:29:34;;;;;;;;;;;31.50;49.00;;;;;;5083296;28;20140;-72
2023/07/08 13:32:04;;;;;;;;;;;31.50;49.00;;;;;;5079726;28;19924;-72
2023/07/08 13:34:32;;;;;;;;;;;31.60;49.00;;;;;;5050524;28;19920;-72
2023/07/08 13:36:58;;;;;;;;;;;31.60;49.10;;;;;;5051576;28;20434;-72
2023/07/08 13:39:34;;;;;;;;;;;31.60;49.00;;;;;;5051330;28;19978;-72
2023/07/08 13:42:01;;;;;;;;;;;31.60;49.00;;;;;;5051863;28;19909;-72
2023/07/08 13:44:27;;;;;;;;;;;31.60;49.00;;;;;;5047760;28;19908;-72
2023/07/08 13:46:54;;;;;;;;;;;31.70;49.00;;;;;;5048854;28;19924;-70
2023/07/08 13:49:22;;;;;;;;;;;31.70;49.00;;;;;;5050336;28;19974;-71
2023/07/08 13:51:48;;;;;;;;;;;31.70;49.00;;;;;;5068272;28;19909;-71
2023/07/08 13:54:24;;;;;;;;;;;31.70;48.90;;;;;;5066598;28;19919;-72
2023/07/08 13:56:50;;;;;;;;;;;31.70;48.90;;;;;;5060438;28;19913;-72
2023/07/08 13:59:25;;;;;;;;;;;31.70;48.90;;;;;;5059347;28;19975;-72
2023/07/08 14:01:52;;;;;;;;;;;31.70;48.90;;;;;;5058376;28;19999;-72
2023/07/08 14:04:19;;;;;;;;;;;31.70;48.90;;;;;;5060042;28;19913;-71
2023/07/08 14:06:44;;;;;;;;;;;31.80;49.00;;;;;;5058676;28;19923;-72
2023/07/08 14:09:16;;;;;;;;;;;31.80;49.00;;;;;;5059567;28;20256;-71
2023/07/08 14:11:42;;;;;;;;;;;31.80;49.00;;;;;;5058248;28;20283;-72
2023/07/08 14:14:08;;;;;;;;;;;31.80;49.00;;;;;;5060513;28;20187;-72
2023/07/08 14:16:37;;;;;;;;;;;31.80;49.00;;;;;;5061214;28;20366;-72
2023/07/08 14:19:05;;;;;;;;;;;31.80;49.00;;;;;;5065910;28;20487;-72
2023/07/08 14:21:32;;;;;;;;;;;31.80;49.00;;;;;;5059174;28;19959;-72
2023/07/08 14:23:58;;;;;;;;;;;31.80;49.40;;;;;;5045224;28;20168;-72
2023/07/08 14:26:24;;;;;;;;;;;31.90;49.10;;;;;;5050204;28;19923;-72
2023/07/08 14:28:49;;;;;;;;;;;31.90;49.10;;;;;;5069248;28;19923;-72
2023/07/08 14:31:18;;;;;;;;;;;31.90;49.10;;;;;;5067366;28;19916;-72
2023/07/08 14:33:44;;;;;;;;;;;32.00;49.50;;;;;;5066955;28;19908;-71